sensor_id;sensor_type;location;lat;lon;timestamp;temperature;humidity
25192;DHT22;13143;50.924;5.320;2023-02-28T00:01:22;3.20;99.90
25192;DHT22;13143;50.924;5.320;2023-02-28T00:03:48;3.20;99.90
25192;DHT22;13143;50.924;5.320;2023-02-28T00:06:14;3.20;99.90
25192;DHT22;13143;50.924;5.320;2023-02-28T00:08:39;3.20;99.90
25192;DHT22;13143;50.924;5.320;2023-02-28T00:11:07;3.10;99.90
25192;DHT22;13143;50.924;5.320;2023-02-28T00:13:35;3.10;99.90
25192;DHT22;13143;50.924;5.320;2023-02-28T00:16:05;3.10;99.90
25192;DHT22;13143;50.924;5.320;2023-02-28T00:18:31;3.10;99.90
25192;DHT22;13143;50.924;5.320;2023-02-28T00:20:58;3.10;99.90
25192;DHT22;13143;50.924;5.320;2023-02-28T00:23:24;3.10;99.90
25192;DHT22;13143;50.924;5.320;2023-02-28T00:25:50;3.10;99.90
25192;DHT22;13143;50.924;5.320;2023-02-28T00:28:16;3.10;99.90
25192;DHT22;13143;50.924;5.320;2023-02-28T00:30:42;3.10;99.90
25192;DHT22;13143;50.924;5.320;2023-02-28T00:33:08;3.00;99.90
25192;DHT22;13143;50.924;5.320;2023-02-28T00:35:33;3.00;99.90
25192;DHT22;13143;50.924;5.320;2023-02-28T00:37:59;3.00;99.90
25192;DHT22;13143;50.924;5.320;2023-02-28T00:40:24;3.00;99.90
25192;DHT22;13143;50.924;5.320;2023-02-28T00:42:50;3.00;99.90
25192;DHT22;13143;50.924;5.320;2023-02-28T00:45:16;3.00;99.90
25192;DHT22;13143;50.924;5.320;2023-02-28T00:47:41;2.90;99.90
25192;DHT22;13143;50.924;5.320;2023-02-28T00:50:08;2.90;99.90
25192;DHT22;13143;50.924;5.320;2023-02-28T00:52:34;2.90;99.90
25192;DHT22;13143;50.924;5.320;2023-02-28T00:55:00;2.90;99.90
25192;DHT22;13143;50.924;5.320;2023-02-28T00:57:25;2.90;99.90
25192;DHT22;13143;50.924;5.320;2023-02-28T00:59:51;2.90;99.90
25192;DHT22;13143;50.924;5.320;2023-02-28T01:02:20;2.80;99.90
25192;DHT22;13143;50.924;5.320;2023-02-28T01:04:46;2.80;99.90
25192;DHT22;13143;50.924;5.320;2023-02-28T01:07:12;2.80;99.90
25192;DHT22;13143;50.924;5.320;2023-02-28T01:09:38;2.80;99.90
25192;DHT22;13143;50.924;5.320;2023-02-28T01:12:04;2.70;99.90
25192;DHT22;13143;50.924;5.320;2023-02-28T01:14:29;2.70;99.90
25192;DHT22;13143;50.924;5.320;2023-02-28T01:16:55;2.70;99.90
25192;DHT22;13143;50.924;5.320;2023-02-28T01:19:21;2.70;99.90
25192;DHT22;13143;50.924;5.320;2023-02-28T01:21:46;2.60;99.90
25192;DHT22;13143;50.924;5.320;2023-02-28T01:24:12;2.70;99.90
25192;DHT22;13143;50.924;5.320;2023-02-28T01:26:37;2.60;99.90
25192;DHT22;13143;50.924;5.320;2023-02-28T01:29:03;2.60;99.90
25192;DHT22;13143;50.924;5.320;2023-02-28T01:31:29;2.60;99.90
25192;DHT22;13143;50.924;5.320;2023-02-28T01:33:54;2.50;99.90
25192;DHT22;13143;50.924;5.320;2023-02-28T01:36:23;2.50;99.90
25192;DHT22;13143;50.924;5.320;2023-02-28T01:38:49;2.50;99.90
25192;DHT22;13143;50.924;5.320;2023-02-28T01:41:20;2.50;99.90
25192;DHT22;13143;50.924;5.320;2023-02-28T01:46:13;2.50;99.90
25192;DHT22;13143;50.924;5.320;2023-02-28T01:48:44;2.50;99.90
25192;DHT22;13143;50.924;5.320;2023-02-28T01:51:13;2.40;99.90
25192;DHT22;13143;50.924;5.320;2023-02-28T01:53:47;2.40;99.90
25192;DHT22;13143;50.924;5.320;2023-02-28T01:56:18;2.40;99.90
25192;DHT22;13143;50.924;5.320;2023-02-28T01:58:50;2.40;99.90
25192;DHT22;13143;50.924;5.320;2023-02-28T02:01:17;2.40;99.90
25192;DHT22;13143;50.924;5.320;2023-02-28T02:03:50;2.40;99.90
25192;DHT22;13143;50.924;5.320;2023-02-28T02:06:34;2.40;99.90
25192;DHT22;13143;50.924;5.320;2023-02-28T02:09:00;2.40;99.90
25192;DHT22;13143;50.924;5.320;2023-02-28T02:11:26;2.30;99.90
25192;DHT22;13143;50.924;5.320;2023-02-28T02:23:02;2.30;99.90
25192;DHT22;13143;50.924;5.320;2023-02-28T02:25:39;2.30;99.90
25192;DHT22;13143;50.924;5.320;2023-02-28T02:31:37;2.20;99.90
25192;DHT22;13143;50.924;5.320;2023-02-28T02:37:10;2.20;99.90
25192;DHT22;13143;50.924;5.320;2023-02-28T02:42:55;2.10;99.90
25192;DHT22;13143;50.924;5.320;2023-02-28T02:48:11;2.10;99.90
25192;DHT22;13143;50.924;5.320;2023-02-28T02:50:43;2.10;99.90
25192;DHT22;13143;50.924;5.320;2023-02-28T02:53:12;2.10;99.90
25192;DHT22;13143;50.924;5.320;2023-02-28T02:55:43;2.10;99.90
25192;DHT22;13143;50.924;5.320;2023-02-28T02:58:14;2.00;99.90
25192;DHT22;13143;50.924;5.320;2023-02-28T03:00:46;2.00;99.90
25192;DHT22;13143;50.924;5.320;2023-02-28T03:03:13;2.00;99.90
25192;DHT22;13143;50.924;5.320;2023-02-28T03:05:46;2.00;99.90
25192;DHT22;13143;50.924;5.320;2023-02-28T03:08:12;2.00;99.90
25192;DHT22;13143;50.924;5.320;2023-02-28T03:10:41;2.00;99.90
25192;DHT22;13143;50.924;5.320;2023-02-28T03:21:34;1.90;99.90
25192;DHT22;13143;50.924;5.320;2023-02-28T03:24:31;1.90;99.90
25192;DHT22;13143;50.924;5.320;2023-02-28T03:27:06;1.80;99.90
25192;DHT22;13143;50.924;5.320;2023-02-28T03:29:39;1.80;99.90
25192;DHT22;13143;50.924;5.320;2023-02-28T03:32:36;1.80;99.90
25192;DHT22;13143;50.924;5.320;2023-02-28T03:35:37;1.80;99.90
25192;DHT22;13143;50.924;5.320;2023-02-28T03:41:01;1.80;99.90
25192;DHT22;13143;50.924;5.320;2023-02-28T03:43:31;1.80;99.90
25192;DHT22;13143;50.924;5.320;2023-02-28T03:46:02;1.80;99.90
25192;DHT22;13143;50.924;5.320;2023-02-28T03:48:37;1.80;99.90
25192;DHT22;13143;50.924;5.320;2023-02-28T03:51:06;1.80;99.90
25192;DHT22;13143;50.924;5.320;2023-02-28T03:53:44;1.80;99.90
25192;DHT22;13143;50.924;5.320;2023-02-28T03:56:27;1.80;99.90
25192;DHT22;13143;50.924;5.320;2023-02-28T03:59:05;1.70;99.90
25192;DHT22;13143;50.924;5.320;2023-02-28T04:01:39;1.70;99.90
25192;DHT22;13143;50.924;5.320;2023-02-28T04:04:10;1.80;99.90
25192;DHT22;13143;50.924;5.320;2023-02-28T04:06:36;1.70;99.90
25192;DHT22;13143;50.924;5.320;2023-02-28T04:09:03;1.70;99.90
25192;DHT22;13143;50.924;5.320;2023-02-28T04:11:49;1.70;99.90
25192;DHT22;13143;50.924;5.320;2023-02-28T04:14:17;1.70;99.90
25192;DHT22;13143;50.924;5.320;2023-02-28T04:16:43;1.70;99.90
25192;DHT22;13143;50.924;5.320;2023-02-28T04:19:10;1.70;99.90
25192;DHT22;13143;50.924;5.320;2023-02-28T04:21:39;1.70;99.90
25192;DHT22;13143;50.924;5.320;2023-02-28T04:24:06;1.60;99.90
25192;DHT22;13143;50.924;5.320;2023-02-28T04:26:34;1.60;99.90
25192;DHT22;13143;50.924;5.320;2023-02-28T04:29:03;1.60;99.90
25192;DHT22;13143;50.924;5.320;2023-02-28T04:31:29;1.60;99.90
25192;DHT22;13143;50.924;5.320;2023-02-28T04:33:55;1.60;99.90
25192;DHT22;13143;50.924;5.320;2023-02-28T04:36:20;1.60;99.90
25192;DHT22;13143;50.924;5.320;2023-02-28T04:38:48;1.50;99.90
25192;DHT22;13143;50.924;5.320;2023-02-28T04:41:14;1.50;99.90
25192;DHT22;13143;50.924;5.320;2023-02-28T04:43:40;1.50;99.90
25192;DHT22;13143;50.924;5.320;2023-02-28T04:46:06;1.50;99.90
25192;DHT22;13143;50.924;5.320;2023-02-28T04:48:34;1.50;99.90
25192;DHT22;13143;50.924;5.320;2023-02-28T04:51:05;1.50;99.90
25192;DHT22;13143;50.924;5.320;2023-02-28T04:53:31;1.50;99.90
25192;DHT22;13143;50.924;5.320;2023-02-28T04:55:57;1.50;99.90
25192;DHT22;13143;50.924;5.320;2023-02-28T04:58:23;1.40;99.90
25192;DHT22;13143;50.924;5.320;2023-02-28T05:00:53;1.40;99.90
25192;DHT22;13143;50.924;5.320;2023-02-28T05:03:20;1.50;99.90
25192;DHT22;13143;50.924;5.320;2023-02-28T05:05:46;1.40;99.90
25192;DHT22;13143;50.924;5.320;2023-02-28T05:08:12;1.40;99.90
25192;DHT22;13143;50.924;5.320;2023-02-28T05:10:38;1.40;99.90
25192;DHT22;13143;50.924;5.320;2023-02-28T05:13:03;1.40;99.90
25192;DHT22;13143;50.924;5.320;2023-02-28T05:15:29;1.40;99.90
25192;DHT22;13143;50.924;5.320;2023-02-28T05:17:58;1.40;99.90
25192;DHT22;13143;50.924;5.320;2023-02-28T05:20:23;1.40;99.90
25192;DHT22;13143;50.924;5.320;2023-02-28T05:22:49;1.40;99.90
25192;DHT22;13143;50.924;5.320;2023-02-28T05:25:19;1.40;99.90
25192;DHT22;13143;50.924;5.320;2023-02-28T05:27:45;1.40;99.90
25192;DHT22;13143;50.924;5.320;2023-02-28T05:30:11;1.30;99.90
25192;DHT22;13143;50.924;5.320;2023-02-28T05:32:38;1.30;99.90
25192;DHT22;13143;50.924;5.320;2023-02-28T05:35:04;1.30;99.90
25192;DHT22;13143;50.924;5.320;2023-02-28T05:37:30;1.30;99.90
25192;DHT22;13143;50.924;5.320;2023-02-28T05:39:55;1.30;99.90
25192;DHT22;13143;50.924;5.320;2023-02-28T05:42:21;1.30;99.90
25192;DHT22;13143;50.924;5.320;2023-02-28T05:44:47;1.30;99.90
25192;DHT22;13143;50.924;5.320;2023-02-28T05:47:12;1.30;99.90
25192;DHT22;13143;50.924;5.320;2023-02-28T05:49:41;1.30;99.90
25192;DHT22;13143;50.924;5.320;2023-02-28T05:52:07;1.30;99.90
25192;DHT22;13143;50.924;5.320;2023-02-28T05:54:33;1.30;99.90
25192;DHT22;13143;50.924;5.320;2023-02-28T05:56:58;1.30;99.90
25192;DHT22;13143;50.924;5.320;2023-02-28T05:59:24;1.30;99.90
25192;DHT22;13143;50.924;5.320;2023-02-28T06:01:49;1.20;99.90
25192;DHT22;13143;50.924;5.320;2023-02-28T06:04:17;1.30;99.90
25192;DHT22;13143;50.924;5.320;2023-02-28T06:06:48;1.20;99.90
25192;DHT22;13143;50.924;5.320;2023-02-28T06:09:15;1.20;99.90
25192;DHT22;13143;50.924;5.320;2023-02-28T06:11:42;1.20;99.90
25192;DHT22;13143;50.924;5.320;2023-02-28T06:14:16;1.20;99.90
25192;DHT22;13143;50.924;5.320;2023-02-28T06:16:42;1.10;99.90
25192;DHT22;13143;50.924;5.320;2023-02-28T06:19:09;1.20;99.90
25192;DHT22;13143;50.924;5.320;2023-02-28T06:21:35;1.10;99.90
25192;DHT22;13143;50.924;5.320;2023-02-28T06:24:01;1.10;99.90
25192;DHT22;13143;50.924;5.320;2023-02-28T06:26:26;1.10;99.90
25192;DHT22;13143;50.924;5.320;2023-02-28T06:28:52;1.10;99.90
25192;DHT22;13143;50.924;5.320;2023-02-28T06:31:18;1.10;99.90
25192;DHT22;13143;50.924;5.320;2023-02-28T06:33:45;1.10;99.90
25192;DHT22;13143;50.924;5.320;2023-02-28T06:36:12;1.00;99.90
25192;DHT22;13143;50.924;5.320;2023-02-28T06:38:39;1.10;99.90
25192;DHT22;13143;50.924;5.320;2023-02-28T06:41:05;1.10;99.90
25192;DHT22;13143;50.924;5.320;2023-02-28T06:43:35;1.00;99.90
25192;DHT22;13143;50.924;5.320;2023-02-28T06:46:04;1.00;99.90
25192;DHT22;13143;50.924;5.320;2023-02-28T06:48:30;1.00;99.90
25192;DHT22;13143;50.924;5.320;2023-02-28T06:51:14;1.00;99.90
25192;DHT22;13143;50.924;5.320;2023-02-28T06:53:41;1.00;99.90
25192;DHT22;13143;50.924;5.320;2023-02-28T06:56:09;0.90;99.90
25192;DHT22;13143;50.924;5.320;2023-02-28T06:58:35;0.90;99.90
25192;DHT22;13143;50.924;5.320;2023-02-28T07:01:01;0.90;99.90
25192;DHT22;13143;50.924;5.320;2023-02-28T07:03:27;0.90;99.90
25192;DHT22;13143;50.924;5.320;2023-02-28T07:05:53;0.90;99.90
25192;DHT22;13143;50.924;5.320;2023-02-28T07:08:22;0.90;99.90
25192;DHT22;13143;50.924;5.320;2023-02-28T07:10:51;0.90;99.90
25192;DHT22;13143;50.924;5.320;2023-02-28T07:13:17;0.90;99.90
25192;DHT22;13143;50.924;5.320;2023-02-28T07:15:43;0.90;99.90
25192;DHT22;13143;50.924;5.320;2023-02-28T07:18:08;0.90;99.90
25192;DHT22;13143;50.924;5.320;2023-02-28T07:20:34;0.90;99.90
25192;DHT22;13143;50.924;5.320;2023-02-28T07:23:00;0.90;99.90
25192;DHT22;13143;50.924;5.320;2023-02-28T07:25:27;0.90;99.90
25192;DHT22;13143;50.924;5.320;2023-02-28T07:27:55;0.90;99.90
25192;DHT22;13143;50.924;5.320;2023-02-28T07:30:21;0.90;99.90
25192;DHT22;13143;50.924;5.320;2023-02-28T07:32:47;0.90;99.90
25192;DHT22;13143;50.924;5.320;2023-02-28T07:35:13;0.90;99.90
25192;DHT22;13143;50.924;5.320;2023-02-28T07:37:41;0.90;99.90
25192;DHT22;13143;50.924;5.320;2023-02-28T07:40:09;0.90;99.90
25192;DHT22;13143;50.924;5.320;2023-02-28T07:42:42;0.90;99.90
25192;DHT22;13143;50.924;5.320;2023-02-28T07:45:09;0.90;99.90
25192;DHT22;13143;50.924;5.320;2023-02-28T07:47:37;0.90;99.90
25192;DHT22;13143;50.924;5.320;2023-02-28T07:50:05;0.90;99.90
25192;DHT22;13143;50.924;5.320;2023-02-28T07:52:31;0.90;99.90
25192;DHT22;13143;50.924;5.320;2023-02-28T07:54:57;0.90;99.90
25192;DHT22;13143;50.924;5.320;2023-02-28T07:57:23;0.90;99.90
25192;DHT22;13143;50.924;5.320;2023-02-28T07:59:49;0.90;99.90
25192;DHT22;13143;50.924;5.320;2023-02-28T08:02:16;0.90;99.90
25192;DHT22;13143;50.924;5.320;2023-02-28T08:04:42;0.90;99.90
25192;DHT22;13143;50.924;5.320;2023-02-28T08:07:08;0.90;99.90
25192;DHT22;13143;50.924;5.320;2023-02-28T08:09:41;1.00;99.90
25192;DHT22;13143;50.924;5.320;2023-02-28T08:12:09;0.90;99.90
25192;DHT22;13143;50.924;5.320;2023-02-28T08:14:35;0.90;99.90
25192;DHT22;13143;50.924;5.320;2023-02-28T08:17:01;1.00;99.90
25192;DHT22;13143;50.924;5.320;2023-02-28T08:19:27;1.00;99.90
25192;DHT22;13143;50.924;5.320;2023-02-28T08:21:53;1.00;99.90
25192;DHT22;13143;50.924;5.320;2023-02-28T08:24:18;1.00;99.90
25192;DHT22;13143;50.924;5.320;2023-02-28T08:26:44;1.00;99.90
25192;DHT22;13143;50.924;5.320;2023-02-28T08:29:09;1.10;99.90
25192;DHT22;13143;50.924;5.320;2023-02-28T08:31:35;1.10;99.90
25192;DHT22;13143;50.924;5.320;2023-02-28T08:34:12;1.20;99.90
25192;DHT22;13143;50.924;5.320;2023-02-28T08:36:38;1.10;99.90
25192;DHT22;13143;50.924;5.320;2023-02-28T08:39:05;1.20;99.90
25192;DHT22;13143;50.924;5.320;2023-02-28T08:41:31;1.20;99.90
25192;DHT22;13143;50.924;5.320;2023-02-28T08:43:57;1.20;99.90
25192;DHT22;13143;50.924;5.320;2023-02-28T08:46:23;1.30;99.90
25192;DHT22;13143;50.924;5.320;2023-02-28T08:48:52;1.30;99.90
25192;DHT22;13143;50.924;5.320;2023-02-28T08:51:19;1.40;99.90
25192;DHT22;13143;50.924;5.320;2023-02-28T08:53:52;1.40;99.90
25192;DHT22;13143;50.924;5.320;2023-02-28T08:56:18;1.40;99.90
25192;DHT22;13143;50.924;5.320;2023-02-28T08:58:45;1.50;99.90
25192;DHT22;13143;50.924;5.320;2023-02-28T09:01:19;1.50;99.90
25192;DHT22;13143;50.924;5.320;2023-02-28T09:03:46;1.50;99.90
25192;DHT22;13143;50.924;5.320;2023-02-28T09:06:13;1.60;99.90
25192;DHT22;13143;50.924;5.320;2023-02-28T09:08:40;1.60;99.90
25192;DHT22;13143;50.924;5.320;2023-02-28T09:11:07;1.60;99.90
25192;DHT22;13143;50.924;5.320;2023-02-28T09:13:33;1.70;99.90
25192;DHT22;13143;50.924;5.320;2023-02-28T09:16:00;1.70;99.90
25192;DHT22;13143;50.924;5.320;2023-02-28T09:18:26;1.70;99.90
25192;DHT22;13143;50.924;5.320;2023-02-28T09:20:52;1.80;99.90
25192;DHT22;13143;50.924;5.320;2023-02-28T09:23:19;1.80;99.90
25192;DHT22;13143;50.924;5.320;2023-02-28T09:25:53;1.80;99.90
25192;DHT22;13143;50.924;5.320;2023-02-28T09:28:20;1.80;99.90
25192;DHT22;13143;50.924;5.320;2023-02-28T09:30:48;1.90;99.90
25192;DHT22;13143;50.924;5.320;2023-02-28T09:33:15;1.90;99.90
25192;DHT22;13143;50.924;5.320;2023-02-28T09:35:41;2.00;99.90
25192;DHT22;13143;50.924;5.320;2023-02-28T09:38:09;2.10;99.90
25192;DHT22;13143;50.924;5.320;2023-02-28T09:40:58;2.10;99.90
25192;DHT22;13143;50.924;5.320;2023-02-28T09:43:27;2.10;99.90
25192;DHT22;13143;50.924;5.320;2023-02-28T09:48:44;2.20;99.90
25192;DHT22;13143;50.924;5.320;2023-02-28T09:54:00;2.30;99.90
25192;DHT22;13143;50.924;5.320;2023-02-28T09:56:42;2.30;99.90
25192;DHT22;13143;50.924;5.320;2023-02-28T10:02:21;2.40;99.90
25192;DHT22;13143;50.924;5.320;2023-02-28T10:07:37;2.50;99.90
25192;DHT22;13143;50.924;5.320;2023-02-28T10:10:17;2.50;99.90
25192;DHT22;13143;50.924;5.320;2023-02-28T10:12:46;2.60;99.90
25192;DHT22;13143;50.924;5.320;2023-02-28T10:15:16;2.70;99.90
25192;DHT22;13143;50.924;5.320;2023-02-28T10:17:45;2.70;99.90
25192;DHT22;13143;50.924;5.320;2023-02-28T10:20:15;2.70;99.90
25192;DHT22;13143;50.924;5.320;2023-02-28T10:23:04;2.70;99.90
25192;DHT22;13143;50.924;5.320;2023-02-28T10:25:34;2.80;99.90
25192;DHT22;13143;50.924;5.320;2023-02-28T10:28:26;2.80;99.90
25192;DHT22;13143;50.924;5.320;2023-02-28T10:30:53;2.80;99.90
25192;DHT22;13143;50.924;5.320;2023-02-28T10:33:32;2.90;99.90
25192;DHT22;13143;50.924;5.320;2023-02-28T10:35:58;2.90;99.90
25192;DHT22;13143;50.924;5.320;2023-02-28T10:38:27;3.00;99.90
25192;DHT22;13143;50.924;5.320;2023-02-28T10:43:29;3.00;99.90
25192;DHT22;13143;50.924;5.320;2023-02-28T10:46:02;3.00;99.90
25192;DHT22;13143;50.924;5.320;2023-02-28T10:48:48;3.00;99.90
25192;DHT22;13143;50.924;5.320;2023-02-28T10:51:18;3.10;99.90
25192;DHT22;13143;50.924;5.320;2023-02-28T10:53:49;3.10;99.90
25192;DHT22;13143;50.924;5.320;2023-02-28T10:56:24;3.20;99.90
25192;DHT22;13143;50.924;5.320;2023-02-28T10:59:00;3.20;99.90
25192;DHT22;13143;50.924;5.320;2023-02-28T11:04:00;3.20;99.90
25192;DHT22;13143;50.924;5.320;2023-02-28T11:06:32;3.30;99.90
25192;DHT22;13143;50.924;5.320;2023-02-28T11:09:01;3.30;99.90
25192;DHT22;13143;50.924;5.320;2023-02-28T11:11:29;3.30;99.90
25192;DHT22;13143;50.924;5.320;2023-02-28T11:14:03;3.40;99.90
25192;DHT22;13143;50.924;5.320;2023-02-28T11:16:37;3.40;99.90
25192;DHT22;13143;50.924;5.320;2023-02-28T11:19:05;3.50;99.90
25192;DHT22;13143;50.924;5.320;2023-02-28T11:21:34;3.50;99.90
25192;DHT22;13143;50.924;5.320;2023-02-28T11:24:24;3.40;99.90
25192;DHT22;13143;50.924;5.320;2023-02-28T11:26:51;3.50;99.90
25192;DHT22;13143;50.924;5.320;2023-02-28T11:29:39;3.50;99.10
25192;DHT22;13143;50.924;5.320;2023-02-28T11:32:22;3.50;98.90
25192;DHT22;13143;50.924;5.320;2023-02-28T11:35:14;3.50;98.80
25192;DHT22;13143;50.924;5.320;2023-02-28T11:37:42;3.60;98.50
25192;DHT22;13143;50.924;5.320;2023-02-28T11:40:23;3.60;98.50
25192;DHT22;13143;50.924;5.320;2023-02-28T11:46:35;3.70;96.90
25192;DHT22;13143;50.924;5.320;2023-02-28T11:52:01;3.80;97.10
25192;DHT22;13143;50.924;5.320;2023-02-28T12:00:51;3.80;96.30
25192;DHT22;13143;50.924;5.320;2023-02-28T12:03:53;3.80;96.20
25192;DHT22;13143;50.924;5.320;2023-02-28T12:31:40;4.10;94.80
25192;DHT22;13143;50.924;5.320;2023-02-28T12:34:12;4.20;94.60
25192;DHT22;13143;50.924;5.320;2023-02-28T12:36:39;4.20;93.80
25192;DHT22;13143;50.924;5.320;2023-02-28T12:39:29;4.20;94.10
25192;DHT22;13143;50.924;5.320;2023-02-28T12:42:05;4.20;93.90
25192;DHT22;13143;50.924;5.320;2023-02-28T12:44:55;4.30;93.50
25192;DHT22;13143;50.924;5.320;2023-02-28T12:47:22;4.30;93.80
25192;DHT22;13143;50.924;5.320;2023-02-28T12:50:09;4.40;92.60
25192;DHT22;13143;50.924;5.320;2023-02-28T12:58:19;4.40;92.60
25192;DHT22;13143;50.924;5.320;2023-02-28T13:09:26;4.40;94.30
25192;DHT22;13143;50.924;5.320;2023-02-28T13:11:53;4.40;93.60
25192;DHT22;13143;50.924;5.320;2023-02-28T13:19:30;4.50;93.80
25192;DHT22;13143;50.924;5.320;2023-02-28T13:21:57;4.60;94.10
25192;DHT22;13143;50.924;5.320;2023-02-28T13:24:45;4.60;93.70
25192;DHT22;13143;50.924;5.320;2023-02-28T13:27:21;4.60;92.20
25192;DHT22;13143;50.924;5.320;2023-02-28T13:29:51;4.70;92.40
25192;DHT22;13143;50.924;5.320;2023-02-28T13:32:30;4.70;92.70
25192;DHT22;13143;50.924;5.320;2023-02-28T13:39:57;4.70;92.60
25192;DHT22;13143;50.924;5.320;2023-02-28T13:47:39;4.80;93.20
25192;DHT22;13143;50.924;5.320;2023-02-28T13:50:29;4.80;92.80
25192;DHT22;13143;50.924;5.320;2023-02-28T13:56:06;4.80;93.10
25192;DHT22;13143;50.924;5.320;2023-02-28T14:06:55;4.90;93.60
25192;DHT22;13143;50.924;5.320;2023-02-28T14:09:32;4.90;93.80
25192;DHT22;13143;50.924;5.320;2023-02-28T14:15:18;4.90;94.10
25192;DHT22;13143;50.924;5.320;2023-02-28T14:17:54;4.90;94.60
25192;DHT22;13143;50.924;5.320;2023-02-28T14:20:22;5.00;94.40
25192;DHT22;13143;50.924;5.320;2023-02-28T14:23:10;5.00;93.90
25192;DHT22;13143;50.924;5.320;2023-02-28T14:25:47;5.00;94.50
25192;DHT22;13143;50.924;5.320;2023-02-28T14:34:43;5.10;93.30
25192;DHT22;13143;50.924;5.320;2023-02-28T14:37:26;5.10;93.20
25192;DHT22;13143;50.924;5.320;2023-02-28T14:39:53;5.10;92.80
25192;DHT22;13143;50.924;5.320;2023-02-28T14:42:30;5.20;93.30
25192;DHT22;13143;50.924;5.320;2023-02-28T14:44:57;5.10;93.20
25192;DHT22;13143;50.924;5.320;2023-02-28T14:47:30;5.10;93.70
25192;DHT22;13143;50.924;5.320;2023-02-28T14:49:57;5.20;93.20
25192;DHT22;13143;50.924;5.320;2023-02-28T14:52:28;5.20;93.50
25192;DHT22;13143;50.924;5.320;2023-02-28T14:54:59;5.10;94.20
25192;DHT22;13143;50.924;5.320;2023-02-28T14:57:34;5.20;93.60
25192;DHT22;13143;50.924;5.320;2023-02-28T15:02:34;5.30;93.30
25192;DHT22;13143;50.924;5.320;2023-02-28T15:05:10;5.30;93.30
25192;DHT22;13143;50.924;5.320;2023-02-28T15:07:44;5.30;92.90
25192;DHT22;13143;50.924;5.320;2023-02-28T15:10:24;5.30;93.50
25192;DHT22;13143;50.924;5.320;2023-02-28T15:12:56;5.30;92.60
25192;DHT22;13143;50.924;5.320;2023-02-28T15:15:26;5.30;92.80
25192;DHT22;13143;50.924;5.320;2023-02-28T15:17:56;5.30;93.50
25192;DHT22;13143;50.924;5.320;2023-02-28T15:20:23;5.30;93.30
25192;DHT22;13143;50.924;5.320;2023-02-28T15:22:51;5.30;92.80
25192;DHT22;13143;50.924;5.320;2023-02-28T15:25:20;5.30;92.70
25192;DHT22;13143;50.924;5.320;2023-02-28T15:27:52;5.30;93.30
25192;DHT22;13143;50.924;5.320;2023-02-28T15:30:30;5.30;92.80
25192;DHT22;13143;50.924;5.320;2023-02-28T15:35:38;5.30;93.10
25192;DHT22;13143;50.924;5.320;2023-02-28T15:38:24;5.30;93.50
25192;DHT22;13143;50.924;5.320;2023-02-28T15:40:57;5.30;93.70
25192;DHT22;13143;50.924;5.320;2023-02-28T15:43:26;5.30;93.00
25192;DHT22;13143;50.924;5.320;2023-02-28T15:45:59;5.40;92.50
25192;DHT22;13143;50.924;5.320;2023-02-28T15:48:44;5.40;93.20
25192;DHT22;13143;50.924;5.320;2023-02-28T15:51:20;5.50;93.00
25192;DHT22;13143;50.924;5.320;2023-02-28T15:53:54;5.40;92.70
25192;DHT22;13143;50.924;5.320;2023-02-28T15:59:18;5.50;92.20
25192;DHT22;13143;50.924;5.320;2023-02-28T16:01:44;5.50;92.10
25192;DHT22;13143;50.924;5.320;2023-02-28T16:04:19;5.50;92.50
25192;DHT22;13143;50.924;5.320;2023-02-28T16:07:05;5.40;92.40
25192;DHT22;13143;50.924;5.320;2023-02-28T16:09:31;5.40;92.10
25192;DHT22;13143;50.924;5.320;2023-02-28T16:12:00;5.40;92.90
25192;DHT22;13143;50.924;5.320;2023-02-28T16:14:28;5.40;93.10
25192;DHT22;13143;50.924;5.320;2023-02-28T16:17:07;5.50;93.20
25192;DHT22;13143;50.924;5.320;2023-02-28T16:19:34;5.50;92.90
25192;DHT22;13143;50.924;5.320;2023-02-28T16:22:00;5.50;92.90
25192;DHT22;13143;50.924;5.320;2023-02-28T16:24:26;5.50;93.40
25192;DHT22;13143;50.924;5.320;2023-02-28T16:26:53;5.50;92.70
25192;DHT22;13143;50.924;5.320;2023-02-28T16:29:29;5.50;92.80
25192;DHT22;13143;50.924;5.320;2023-02-28T16:31:55;5.60;92.40
25192;DHT22;13143;50.924;5.320;2023-02-28T16:34:21;5.60;92.20
25192;DHT22;13143;50.924;5.320;2023-02-28T16:36:49;5.50;92.60
25192;DHT22;13143;50.924;5.320;2023-02-28T16:39:16;5.50;92.50
25192;DHT22;13143;50.924;5.320;2023-02-28T16:41:45;5.50;92.80
25192;DHT22;13143;50.924;5.320;2023-02-28T16:44:35;5.50;92.30
25192;DHT22;13143;50.924;5.320;2023-02-28T16:47:00;5.60;92.00
25192;DHT22;13143;50.924;5.320;2023-02-28T16:49:26;5.60;91.80
25192;DHT22;13143;50.924;5.320;2023-02-28T16:51:52;5.60;92.00
25192;DHT22;13143;50.924;5.320;2023-02-28T16:54:19;5.60;92.00
25192;DHT22;13143;50.924;5.320;2023-02-28T16:56:48;5.50;91.90
25192;DHT22;13143;50.924;5.320;2023-02-28T16:59:22;5.50;92.00
25192;DHT22;13143;50.924;5.320;2023-02-28T17:01:49;5.50;91.50
25192;DHT22;13143;50.924;5.320;2023-02-28T17:04:15;5.50;92.10
25192;DHT22;13143;50.924;5.320;2023-02-28T17:06:41;5.50;92.40
25192;DHT22;13143;50.924;5.320;2023-02-28T17:09:16;5.50;92.70
25192;DHT22;13143;50.924;5.320;2023-02-28T17:11:43;5.50;92.90
25192;DHT22;13143;50.924;5.320;2023-02-28T17:14:08;5.50;92.60
25192;DHT22;13143;50.924;5.320;2023-02-28T17:16:36;5.50;92.90
25192;DHT22;13143;50.924;5.320;2023-02-28T17:19:06;5.50;93.00
25192;DHT22;13143;50.924;5.320;2023-02-28T17:21:34;5.60;93.40
25192;DHT22;13143;50.924;5.320;2023-02-28T17:24:00;5.50;93.70
25192;DHT22;13143;50.924;5.320;2023-02-28T17:26:26;5.50;93.70
25192;DHT22;13143;50.924;5.320;2023-02-28T17:28:53;5.50;93.70
25192;DHT22;13143;50.924;5.320;2023-02-28T17:31:21;5.50;93.90
25192;DHT22;13143;50.924;5.320;2023-02-28T17:33:47;5.50;94.30
25192;DHT22;13143;50.924;5.320;2023-02-28T17:36:15;5.50;94.30
25192;DHT22;13143;50.924;5.320;2023-02-28T17:38:41;5.50;94.50
25192;DHT22;13143;50.924;5.320;2023-02-28T17:41:09;5.50;94.60
25192;DHT22;13143;50.924;5.320;2023-02-28T17:43:35;5.50;94.50
25192;DHT22;13143;50.924;5.320;2023-02-28T17:46:01;5.40;94.70
25192;DHT22;13143;50.924;5.320;2023-02-28T17:48:27;5.40;94.60
25192;DHT22;13143;50.924;5.320;2023-02-28T17:50:53;5.40;95.10
25192;DHT22;13143;50.924;5.320;2023-02-28T17:53:19;5.40;95.30
25192;DHT22;13143;50.924;5.320;2023-02-28T17:55:51;5.40;95.60
25192;DHT22;13143;50.924;5.320;2023-02-28T17:58:16;5.40;95.70
25192;DHT22;13143;50.924;5.320;2023-02-28T18:00:44;5.40;95.70
25192;DHT22;13143;50.924;5.320;2023-02-28T18:03:10;5.40;95.40
25192;DHT22;13143;50.924;5.320;2023-02-28T18:05:38;5.40;96.00
25192;DHT22;13143;50.924;5.320;2023-02-28T18:08:04;5.40;95.90
25192;DHT22;13143;50.924;5.320;2023-02-28T18:10:30;5.30;96.10
25192;DHT22;13143;50.924;5.320;2023-02-28T18:12:58;5.30;96.40
25192;DHT22;13143;50.924;5.320;2023-02-28T18:15:24;5.30;96.70
25192;DHT22;13143;50.924;5.320;2023-02-28T18:17:50;5.30;96.90
25192;DHT22;13143;50.924;5.320;2023-02-28T18:20:16;5.30;96.50
25192;DHT22;13143;50.924;5.320;2023-02-28T18:22:43;5.30;96.50
25192;DHT22;13143;50.924;5.320;2023-02-28T18:25:10;5.30;96.60
25192;DHT22;13143;50.924;5.320;2023-02-28T18:27:39;5.30;97.00
25192;DHT22;13143;50.924;5.320;2023-02-28T18:30:05;5.30;97.40